Time;durP1;ratioP1;P1;durP2;ratioP2;P2;SDS_P1;SDS_P2;PMS_P1;PMS_P2;Temp;Humidity;BMP_temperature;BMP_pressure;BME280_temperature;BME280_humidity;BME280_pressure;Samples;Min_cycle;Max_cycle;Signal;HPM_P1;HPM_P2
2023/04/05 00:00:09;;;;;;;6.5;4.3;;;;;;;0.03;66.86426;940.3187;;;;
2023/04/05 00:02:30;;;;;;;5.8;4.1;;;;;;;0.09;66.87207;940.3524;;;;
2023/04/05 00:04:59;;;;;;;5;4.3;;;;;;;0.09;67.39648;940.322;;;;
2023/04/05 00:07:25;;;;;;;5.2;4.5;;;;;;;0.09;67.59668;940.3259;;;;
2023/04/05 00:09:48;;;;;;;7;4.5;;;;;;;0.12;67.40234;940.3354;;;;
2023/04/05 00:12:13;;;;;;;4.6;4;;;;;;;0.1;67.44336;940.2852;;;;
2023/04/05 00:14:38;;;;;;;5.6;4.1;;;;;;;0.12;67.44629;940.3166;;;;
2023/04/05 00:17:06;;;;;;;4.6;4.2;;;;;;;0.11;67.37793;940.317;;;;
2023/04/05 00:19:36;;;;;;;5;3.8;;;;;;;0.2;66.78906;940.2899;;;;
2023/04/05 00:22:00;;;;;;;5.1;3.9;;;;;;;0.17;66.57324;940.2852;;;;
2023/04/05 00:24:28;;;;;;;4.8;4.1;;;;;;;-0.07;67.28125;940.2569;;;;
2023/04/05 00:26:52;;;;;;;6.6;4.1;;;;;;;-0.16;67.71387;940.3003;;;;
2023/04/05 00:29:17;;;;;;;5.5;4.2;;;;;;;-0.16;67.98047;940.2605;;;;
2023/04/05 00:31:43;;;;;;;5.3;4.1;;;;;;;-0.18;67.67676;940.2078;;;;
2023/04/05 00:34:11;;;;;;;5.7;4.1;;;;;;;-0.35;68.18359;940.2576;;;;
2023/04/05 00:36:37;;;;;;;6.2;4.2;;;;;;;-0.34;68.37305;940.2206;;;;
2023/04/05 00:39:02;;;;;;;6.1;4;;;;;;;-0.31;68.42383;940.2316;;;;
2023/04/05 00:41:27;;;;;;;4.6;3.9;;;;;;;-0.21;68.20605;940.158;;;;
2023/04/05 00:43:55;;;;;;;5.7;4.3;;;;;;;-0.06;67.75;940.187;;;;
2023/04/05 00:46:19;;;;;;;4.4;4;;;;;;;-0.07;67.47168;940.1717;;;;
2023/04/05 00:48:45;;;;;;;4.3;3.9;;;;;;;-0.02;67.52344;940.1641;;;;
2023/04/05 00:51:10;;;;;;;4.5;4;;;;;;;0.03;67.26465;940.1578;;;;
2023/04/05 00:53:36;;;;;;;4.2;3.8;;;;;;;-0.09;68.18164;940.1534;;;;
2023/04/05 00:56:01;;;;;;;5.6;4.5;;;;;;;-0.23;68.71387;940.1646;;;;
2023/04/05 00:58:27;;;;;;;5.2;4.2;;;;;;;-0.2;68.83105;940.1764;;;;
2023/04/05 01:00:52;;;;;;;4.1;3.7;;;;;;;-0.11;68.17773;940.1589;;;;
2023/04/05 01:03:19;;;;;;;6.2;4.2;;;;;;;-0.08;67.88086;940.1149;;;;
2023/04/05 01:05:43;;;;;;;5;4.1;;;;;;;-0.1;68.24609;940.0747;;;;
2023/04/05 01:08:09;;;;;;;6.6;4.1;;;;;;;-0.11;68.4668;940.0779;;;;
2023/04/05 01:10:33;;;;;;;6.2;4.1;;;;;;;-0.24;68.69141;940.0109;;;;
2023/04/05 01:13:00;;;;;;;5.7;4;;;;;;;-0.42;69.68555;940.0092;;;;
2023/04/05 01:15:25;;;;;;;5.7;4.3;;;;;;;-0.54;70.18945;940.038;;;;
2023/04/05 01:17:53;;;;;;;4.7;4;;;;;;;-0.54;70.41016;939.9946;;;;
2023/04/05 01:20:16;;;;;;;5.8;3.9;;;;;;;-0.49;70.25195;939.9285;;;;
2023/04/05 01:22:43;;;;;;;5;4;;;;;;;-0.59;70.50293;939.928;;;;
2023/04/05 01:25:11;;;;;;;4.7;3.8;;;;;;;-0.6;70.64551;939.8987;;;;
2023/04/05 01:27:36;;;;;;;4.9;3.8;;;;;;;-0.5;70.44043;939.9124;;;;
2023/04/05 01:30:02;;;;;;;6.4;4.1;;;;;;;-0.63;70.83008;939.9138;;;;
2023/04/05 01:32:26;;;;;;;9.6;8.7;;;;;;;-0.79;71.64941;939.8524;;;;
2023/04/05 01:34:51;;;;;;;6.4;4.4;;;;;;;-0.92;72.16016;939.8293;;;;
2023/04/05 01:37:18;;;;;;;5.8;3.9;;;;;;;-0.98;72.58301;939.8596;;;;
2023/04/05 01:39:46;;;;;;;5.2;4.2;;;;;;;-0.95;72.56543;939.798;;;;
2023/04/05 01:42:08;;;;;;;5.5;4.1;;;;;;;-0.92;72.47168;939.7302;;;;
2023/04/05 01:44:34;;;;;;;6.7;4.1;;;;;;;-1.05;72.59277;939.7937;;;;
2023/04/05 01:46:59;;;;;;;5.8;4.1;;;;;;;-1.05;72.90234;939.8013;;;;
2023/04/05 01:49:25;;;;;;;4.7;4.2;;;;;;;-1.02;72.94336;939.7072;;;;
2023/04/05 01:51:50;;;;;;;6.3;4.6;;;;;;;-1;73.20215;939.707;;;;
2023/04/05 01:54:17;;;;;;;5.3;4.3;;;;;;;-1.01;73.31152;939.7459;;;;
2023/04/05 01:56:42;;;;;;;5.5;4.7;;;;;;;-0.96;73.30859;939.705;;;;
2023/04/05 01:59:07;;;;;;;4.7;4.3;;;;;;;-0.96;73.36426;939.6746;;;;
2023/04/05 02:01:32;;;;;;;8.8;5.3;;;;;;;-0.91;73.37305;939.683;;;;
2023/04/05 02:04:01;;;;;;;8.9;5.3;;;;;;;-0.96;73.27539;939.6502;;;;
2023/04/05 02:06:26;;;;;;;7.6;5.3;;;;;;;-1.1;73.90723;939.7122;;;;
2023/04/05 02:08:51;;;;;;;5.1;4.5;;;;;;;-1.23;74.23828;939.6836;;;;
2023/04/05 02:11:16;;;;;;;6.6;5;;;;;;;-1.21;74.46582;939.6816;;;;
2023/04/05 02:13:43;;;;;;;5.8;4.8;;;;;;;-1.2;74.34277;939.6763;;;;
2023/04/05 02:16:08;;;;;;;6.3;4.9;;;;;;;-1.16;74.19531;939.6166;;;;
2023/04/05 02:18:37;;;;;;;6.7;4.7;;;;;;;-1.22;74.55078;939.5974;;;;
2023/04/05 02:21:00;;;;;;;5.8;4.8;;;;;;;-1.29;74.87109;939.5972;;;;
2023/04/05 02:23:26;;;;;;;7.5;5.2;;;;;;;-1.32;75.17773;939.4753;;;;
2023/04/05 02:25:51;;;;;;;6.8;4.9;;;;;;;-1.3;75.16992;939.5451;;;;
2023/04/05 02:28:17;;;;;;;6.8;4.9;;;;;;;-1.27;75.08594;939.5561;;;;
2023/04/05 02:30:42;;;;;;;7.2;4.7;;;;;;;-1.3;74.92578;939.5576;;;;
2023/04/05 02:33:09;;;;;;;5.7;5.1;;;;;;;-1.48;75.31641;939.5452;;;;
2023/04/05 02:35:34;;;;;;;7;4.4;;;;;;;-1.47;75.46289;939.4043;;;;
2023/04/05 02:38:00;;;;;;;7.5;4.9;;;;;;;-1.52;75.89844;939.4821;;;;
2023/04/05 02:40:25;;;;;;;5.8;4.3;;;;;;;-1.64;76.41895;939.3819;;;;
2023/04/05 02:42:51;;;;;;;5.8;4.8;;;;;;;-1.64;76.78516;939.4742;;;;
2023/04/05 02:45:16;;;;;;;6.1;4.3;;;;;;;-1.56;76.7002;939.4589;;;;
2023/04/05 02:47:42;;;;;;;6.5;4.8;;;;;;;-1.51;76.53125;939.3914;;;;
2023/04/05 02:50:08;;;;;;;5.7;4.5;;;;;;;-1.52;76.83105;939.3472;;;;
2023/04/05 02:52:36;;;;;;;6.3;4.2;;;;;;;-1.59;76.76172;939.2801;;;;
2023/04/05 02:55:01;;;;;;;5.1;4.2;;;;;;;-1.7;77.29688;939.3525;;;;
2023/04/05 02:57:28;;;;;;;6.3;4.5;;;;;;;-1.67;77.41309;939.3236;;;;
2023/04/05 02:59:53;;;;;;;5.2;4.5;;;;;;;-1.72;77.25879;939.3089;;;;
2023/04/05 03:02:19;;;;;;;5.5;4.4;;;;;;;-1.77;77.38379;939.1908;;;;
2023/04/05 03:04:44;;;;;;;7.6;4.7;;;;;;;-1.9;77.93555;939.2748;;;;
2023/04/05 03:07:13;;;;;;;7;4.8;;;;;;;-1.9;78.00195;939.2292;;;;
2023/04/05 03:09:37;;;;;;;6.6;5.1;;;;;;;-1.78;77.50391;939.1903;;;;
2023/04/05 03:12:02;;;;;;;6;4.8;;;;;;;-1.84;77.26855;939.2424;;;;
2023/04/05 03:14:27;;;;;;;6.8;4.7;;;;;;;-1.89;77.27148;939.1119;;;;
2023/04/05 03:16:56;;;;;;;6.2;4.9;;;;;;;-1.88;77.39648;939.1858;;;;
2023/04/05 03:19:22;;;;;;;6.7;4.6;;;;;;;-2.01;78.06055;939.1439;;;;
2023/04/05 03:21:46;;;;;;;6.6;4.9;;;;;;;-2;78.4707;939.1642;;;;
2023/04/05 03:24:12;;;;;;;5.9;4.8;;;;;;;-1.92;78.36426;939.1542;;;;
2023/04/05 03:26:37;;;;;;;7;5.3;;;;;;;-1.94;78.65918;939.1362;;;;
2023/04/05 03:29:02;;;;;;;7.2;5.2;;;;;;;-1.85;78.61035;939.022;;;;
2023/04/05 03:31:29;;;;;;;7.4;5.2;;;;;;;-1.75;78.29688;939.1192;;;;
2023/04/05 03:33:54;;;;;;;5.8;4.4;;;;;;;-1.61;77.72461;939.1459;;;;
2023/04/05 03:36:20;;;;;;;6.9;4.7;;;;;;;-1.63;77.35156;939.0811;;;;
2023/04/05 03:38:46;;;;;;;7.9;5.1;;;;;;;-1.73;77.54688;938.9871;;;;
2023/04/05 03:41:11;;;;;;;23.2;11.5;;;;;;;-1.82;77.82813;939.0222;;;;
2023/04/05 03:43:36;;;;;;;18;8.9;;;;;;;-1.77;77.72559;938.929;;;;
2023/04/05 03:46:05;;;;;;;11.7;7.3;;;;;;;-1.84;77.6582;938.983;;;;
2023/04/05 03:48:30;;;;;;;7.6;5.8;;;;;;;-1.9;78.0791;938.9652;;;;
2023/04/05 03:50:55;;;;;;;7.3;4.8;;;;;;;-1.92;78.17578;938.9744;;;;
2023/04/05 03:53:20;;;;;;;6.3;5.1;;;;;;;-1.92;78.30859;939.0069;;;;
2023/04/05 03:55:49;;;;;;;6.7;4.8;;;;;;;-1.83;78.00391;938.9895;;;;
2023/04/05 03:58:11;;;;;;;7;4.7;;;;;;;-1.85;77.67871;938.8954;;;;
2023/04/05 04:02:39;;;;;;;5.3;4.8;;;;;;;-1.95;77.88086;938.9349;;;;
2023/04/05 04:05:05;;;;;;;8.8;4.4;;;;;;;-2.09;78.47656;939.0011;;;;
2023/04/05 04:07:30;;;;;;;6.5;4.7;;;;;;;-2.1;78.61914;938.9724;;;;
2023/04/05 04:09:57;;;;;;;5.6;4.6;;;;;;;-2.26;79.12012;938.976;;;;
2023/04/05 04:12:22;;;;;;;7.1;5.2;;;;;;;-2.39;79.99316;938.9717;;;;
2023/04/05 04:14:49;;;;;;;6.8;5.7;;;;;;;-2.42;80.68457;938.9686;;;;
2023/04/05 04:17:14;;;;;;;10.7;6.2;;;;;;;-2.3;80.56445;938.9819;;;;
2023/04/05 04:19:39;;;;;;;10.8;6.6;;;;;;;-2.21;80.07227;938.976;;;;
2023/04/05 04:22:08;;;;;;;7.9;5.8;;;;;;;-2.03;79.37305;938.9059;;;;
2023/04/05 04:24:31;;;;;;;19.4;12.3;;;;;;;-1.97;78.4873;938.9075;;;;
2023/04/05 04:26:59;;;;;;;39.8;23.3;;;;;;;-2.03;78.38867;938.9063;;;;
2023/04/05 04:29:29;;;;;;;119;64.8;;;;;;;-2.01;78.38086;938.9041;;;;
2023/04/05 04:31:51;;;;;;;8.6;6.3;;;;;;;-2.04;78.57324;938.9156;;;;
2023/04/05 04:34:17;;;;;;;9.6;6;;;;;;;-2.03;78.8418;938.8872;;;;
2023/04/05 04:36:45;;;;;;;7.4;5.4;;;;;;;-2.05;78.54004;938.8499;;;;
2023/04/05 04:39:08;;;;;;;5.6;4.4;;;;;;;-1.95;78.14844;938.9221;;;;
2023/04/05 04:41:34;;;;;;;25.3;14.5;;;;;;;-2.12;78.5918;938.8315;;;;
2023/04/05 04:44:01;;;;;;;8.2;6.4;;;;;;;-2.08;79.02148;938.8641;;;;
2023/04/05 04:46:29;;;;;;;7.5;5.3;;;;;;;-1.97;78.4209;938.7864;;;;
2023/04/05 04:48:56;;;;;;;6.3;5.3;;;;;;;-1.96;78.17871;938.8572;;;;
2023/04/05 04:51:21;;;;;;;7.2;5.1;;;;;;;-1.91;77.6543;938.9059;;;;
2023/04/05 04:53:46;;;;;;;8.1;5.1;;;;;;;-2.03;77.52344;938.8136;;;;
2023/04/05 04:56:12;;;;;;;8.9;5.5;;;;;;;-2.18;78.38184;938.8901;;;;
2023/04/05 04:59:27;;;;;;;8;5.4;;;;;;;-2.2;78.85352;938.9556;;;;
2023/04/05 05:01:55;;;;;;;7.6;5.2;;;;;;;-2.13;78.11328;938.9361;;;;
2023/04/05 05:04:43;;;;;;;6.1;4.8;;;;;;;-2.07;78.13672;938.9389;;;;
2023/04/05 05:07:09;;;;;;;7.8;5.9;;;;;;;-2.23;78.37207;938.9589;;;;
2023/04/05 05:09:33;;;;;;;8.1;5.7;;;;;;;-2.38;79.375;938.8945;;;;
2023/04/05 05:12:00;;;;;;;7.1;5.1;;;;;;;-2.35;79.32617;939.0039;;;;
2023/04/05 05:14:25;;;;;;;7.1;5.4;;;;;;;-2.34;79.51465;939.0105;;;;
2023/04/05 05:16:50;;;;;;;11.7;6.7;;;;;;;-2.33;79.32813;938.9626;;;;
2023/04/05 05:19:15;;;;;;;7.9;6;;;;;;;-2.27;79.27344;938.9965;;;;
2023/04/05 05:21:41;;;;;;;9.1;5.5;;;;;;;-2.25;79.22168;939.036;;;;
2023/04/05 05:24:08;;;;;;;10;6.3;;;;;;;-2.13;78.76855;939.019;;;;
2023/04/05 05:26:35;;;;;;;9;5.9;;;;;;;-2.11;78.43945;939.0801;;;;
2023/04/05 05:28:59;;;;;;;10.2;6.1;;;;;;;-2.24;78.7041;939.0875;;;;
2023/04/05 05:31:28;;;;;;;9.8;6;;;;;;;-2.29;79.25879;939.1092;;;;
2023/04/05 05:33:51;;;;;;;39;14.4;;;;;;;-2.23;79.47949;939.04;;;;
2023/04/05 05:36:19;;;;;;;73.9;26.4;;;;;;;-2.23;79.42676;939.0388;;;;
2023/04/05 05:38:44;;;;;;;64.1;23.5;;;;;;;-2.18;79.45703;939.1303;;;;
2023/04/05 05:41:09;;;;;;;53.2;20.7;;;;;;;-2.12;79.24512;939.1534;;;;
2023/04/05 05:43:34;;;;;;;35;15.3;;;;;;;-1.95;79.3125;939.177;;;;
2023/04/05 05:46:01;;;;;;;29.2;11.9;;;;;;;-1.44;79.44141;939.2704;;;;
2023/04/05 05:48:26;;;;;;;8.5;6.2;;;;;;;-0.69;75.77832;939.1708;;;;
2023/04/05 05:50:53;;;;;;;7.3;4.6;;;;;;;0.64;71.53418;939.0672;;;;
2023/04/05 05:53:17;;;;;;;6.7;3.9;;;;;;;0.67;68.14648;939.0959;;;;
2023/04/05 05:56:03;;;;;;;6;4.2;;;;;;;0.84;67.80762;939.0999;;;;
2023/04/05 05:58:28;;;;;;;7.8;6.3;;;;;;;2.69;62.09375;939.1283;;;;
2023/04/05 06:00:59;;;;;;;9.1;6.3;;;;;;;2.6;60.69141;939.1454;;;;
2023/04/05 06:03:24;;;;;;;9.5;7.1;;;;;;;4.47;56.53516;939.0583;;;;
2023/04/05 06:05:49;;;;;;;10.9;6.8;;;;;;;5.67;52.22266;939.0062;;;;
2023/04/05 06:08:16;;;;;;;11.2;7.8;;;;;;;5.92;49.24902;938.9476;;;;
2023/04/05 06:10:41;;;;;;;8.6;6;;;;;;;6.39;48.09277;939.0069;;;;
2023/04/05 06:13:08;;;;;;;8.9;5.2;;;;;;;6.71;48.83105;938.9545;;;;
2023/04/05 06:15:33;;;;;;;7.8;5.2;;;;;;;6.57;47.29883;938.9278;;;;
2023/04/05 06:17:59;;;;;;;8.6;5.1;;;;;;;6.2;48.85156;938.9311;;;;
2023/04/05 06:20:24;;;;;;;4.8;3.6;;;;;;;4.93;50.18262;938.9183;;;;
2023/04/05 06:22:52;;;;;;;7.1;4.8;;;;;;;5.25;50.86328;938.8425;;;;
2023/04/05 06:25:18;;;;;;;5.8;3.4;;;;;;;4.85;50.64746;938.8984;;;;
2023/04/05 06:27:43;;;;;;;3.5;3.1;;;;;;;4.36;51.18555;938.7988;;;;
2023/04/05 06:30:08;;;;;;;4;3.5;;;;;;;4.58;51.61621;938.808;;;;
2023/04/05 06:32:35;;;;;;;6.3;3.7;;;;;;;5.39;49.2334;938.7939;;;;
2023/04/05 06:35:02;;;;;;;5.2;3.8;;;;;;;5.89;48.7041;938.6819;;;;
2023/04/05 06:37:29;;;;;;;7.9;4.8;;;;;;;6.04;47.5918;938.7427;;;;
2023/04/05 06:39:54;;;;;;;3.9;3.5;;;;;;;8.36;42.96484;938.6917;;;;
2023/04/05 06:42:19;;;;;;;4.3;3.3;;;;;;;9.05;41.11035;938.6346;;;;
2023/04/05 06:44:44;;;;;;;5.4;3.7;;;;;;;7.96;42.37891;938.6458;;;;
2023/04/05 06:47:12;;;;;;;4.9;3.9;;;;;;;6.51;45.57227;938.704;;;;
2023/04/05 06:49:37;;;;;;;3.9;3.1;;;;;;;5.98;45.93359;938.6947;;;;
2023/04/05 06:52:04;;;;;;;10;6.2;;;;;;;6.77;44.97852;938.6554;;;;
2023/04/05 06:54:28;;;;;;;11.1;7.2;;;;;;;7.87;44.94629;938.6442;;;;
2023/04/05 06:56:55;;;;;;;3.9;3.4;;;;;;;9.06;41.00781;938.6561;;;;
2023/04/05 06:59:20;;;;;;;5;3.4;;;;;;;8.51;40.93359;938.5969;;;;
2023/04/05 07:01:48;;;;;;;5.2;3.4;;;;;;;8.12;44.2002;938.6033;;;;
2023/04/05 07:04:13;;;;;;;5.3;3.1;;;;;;;7.36;42.29688;938.6063;;;;
2023/04/05 07:06:39;;;;;;;3.6;3.1;;;;;;;8.13;43.30469;938.6169;;;;
2023/04/05 07:09:04;;;;;;;3.4;2.9;;;;;;;9.17;40.98438;938.5458;;;;
2023/04/05 07:11:31;;;;;;;3.9;3.1;;;;;;;10.26;39.1377;938.5945;;;;
2023/04/05 07:13:55;;;;;;;3.3;2.9;;;;;;;9.43;40.08691;938.4922;;;;
2023/04/05 07:16:23;;;;;;;5.4;2.9;;;;;;;10.08;39.47363;938.5353;;;;
2023/04/05 07:18:48;;;;;;;3.4;3;;;;;;;10.56;37.41699;938.4801;;;;
2023/04/05 07:21:17;;;;;;;4.1;2.9;;;;;;;10.89;38.05078;938.4542;;;;
2023/04/05 07:23:46;;;;;;;4;3;;;;;;;11.31;37.32227;938.3901;;;;
2023/04/05 07:26:12;;;;;;;3.6;3;;;;;;;12.15;34.85059;938.3074;;;;
2023/04/05 07:28:39;;;;;;;5.9;3.3;;;;;;;11.73;37.3584;938.3517;;;;
2023/04/05 07:31:04;;;;;;;4.4;3;;;;;;;12.42;35.16992;938.3638;;;;
2023/04/05 07:33:31;;;;;;;3.4;2.9;;;;;;;13.23;33.53613;938.3331;;;;
2023/04/05 07:35:56;;;;;;;3.6;2.9;;;;;;;13.56;31.88281;938.3137;;;;
2023/04/05 07:38:22;;;;;;;3.5;2.8;;;;;;;11.39;37.27148;938.358;;;;
2023/04/05 07:40:47;;;;;;;3.2;2.9;;;;;;;11.26;35.78613;938.3532;;;;
2023/04/05 07:43:13;;;;;;;3.4;3.1;;;;;;;12.51;34.58008;938.253;;;;
2023/04/05 07:45:38;;;;;;;3.2;2.8;;;;;;;14.03;31.64063;938.3165;;;;
2023/04/05 07:48:04;;;;;;;3.3;2.8;;;;;;;14.72;30.75586;938.282;;;;
2023/04/05 07:50:30;;;;;;;3;2.5;;;;;;;14.47;31.18848;938.3121;;;;
2023/04/05 07:52:58;;;;;;;6.1;3.8;;;;;;;14.54;31.59668;938.2252;;;;
2023/04/05 07:55:23;;;;;;;3.9;3;;;;;;;15.92;30.07813;938.2383;;;;
2023/04/05 07:57:50;;;;;;;4.2;3.1;;;;;;;14.7;30.50195;938.279;;;;
2023/04/05 08:00:16;;;;;;;3.8;3;;;;;;;15.99;28.91504;938.2575;;;;
2023/04/05 08:02:43;;;;;;;4.5;3.1;;;;;;;15.87;30.0752;938.307;;;;
2023/04/05 08:05:08;;;;;;;4.4;3;;;;;;;15.92;28.89844;938.3347;;;;
2023/04/05 08:07:38;;;;;;;4.7;3.1;;;;;;;16.18;29.08984;938.2452;;;;
2023/04/05 08:10:08;;;;;;;3.1;2.8;;;;;;;16.32;27.86035;938.2349;;;;
2023/04/05 08:12:33;;;;;;;3.3;3;;;;;;;17.38;26.46777;938.1364;;;;
2023/04/05 08:15:01;;;;;;;5.3;2.9;;;;;;;16.5;28.13867;938.269;;;;
2023/04/05 08:17:27;;;;;;;4.2;2.7;;;;;;;17.41;27.1875;938.2567;;;;
2023/04/05 08:19:52;;;;;;;3.3;3;;;;;;;17.37;26.31543;938.2469;;;;
2023/04/05 08:22:18;;;;;;;4;3.1;;;;;;;18.06;25.67188;938.2809;;;;
2023/04/05 08:24:43;;;;;;;3.3;2.8;;;;;;;17.52;25.98828;938.2536;;;;
2023/04/05 08:27:09;;;;;;;3.5;3;;;;;;;18.26;25.57813;938.2751;;;;
2023/04/05 08:29:34;;;;;;;4.6;3.2;;;;;;;15.52;28.73438;938.2921;;;;
2023/04/05 08:32:00;;;;;;;3.1;2.6;;;;;;;14.5;29.0127;938.2896;;;;
2023/04/05 08:34:25;;;;;;;3.4;2.9;;;;;;;15.52;28.93066;938.2841;;;;
2023/04/05 08:36:51;;;;;;;3;2.7;;;;;;;15.27;29.05273;938.2034;;;;
2023/04/05 08:39:16;;;;;;;4.4;3.4;;;;;;;14.75;30.34473;938.2153;;;;
2023/04/05 08:41:41;;;;;;;3.4;2.9;;;;;;;13.89;31.34277;938.2734;;;;
2023/04/05 08:44:12;;;;;;;9;3.9;;;;;;;13.34;32.78516;938.2955;;;;
2023/04/05 08:46:36;;;;;;;3.6;3.1;;;;;;;13.53;33.43262;938.2363;;;;
2023/04/05 08:49:02;;;;;;;4.6;3.5;;;;;;;13.46;34.26563;938.2164;;;;
2023/04/05 08:51:27;;;;;;;3.3;2.8;;;;;;;13.68;32.00586;938.325;;;;
2023/04/05 08:53:53;;;;;;;5.6;3.5;;;;;;;14.17;32.81348;938.2935;;;;
2023/04/05 08:56:18;;;;;;;4.7;3.5;;;;;;;14.82;31.91699;938.2416;;;;
2023/04/05 08:58:48;;;;;;;14.1;3.8;;;;;;;14.28;32.91406;938.2989;;;;
2023/04/05 09:01:13;;;;;;;7.1;3;;;;;;;14.52;31.12305;938.2693;;;;
2023/04/05 09:03:38;;;;;;;3.9;3.2;;;;;;;14.9;30.80371;938.302;;;;
2023/04/05 09:06:05;;;;;;;5.2;3;;;;;;;15.44;29.76758;938.2615;;;;
2023/04/05 09:08:29;;;;;;;3.9;3.2;;;;;;;16.43;28.94434;938.2836;;;;
2023/04/05 09:10:54;;;;;;;3.2;2.8;;;;;;;16.31;29.35352;938.2662;;;;
2023/04/05 09:13:19;;;;;;;12.1;3.2;;;;;;;15.36;30.36328;938.2764;;;;
2023/04/05 09:15:48;;;;;;;3.6;3.1;;;;;;;14.67;30.55664;938.2977;;;;
2023/04/05 09:18:13;;;;;;;9.4;3.7;;;;;;;14.92;30.18164;938.2353;;;;
2023/04/05 09:20:39;;;;;;;4.5;2.8;;;;;;;14.97;30.20898;938.2462;;;;
2023/04/05 09:23:05;;;;;;;4.3;3.3;;;;;;;13.94;32.62402;938.242;;;;
2023/04/05 09:25:31;;;;;;;4.1;3.3;;;;;;;13.3;33.96582;938.2403;;;;
2023/04/05 09:27:57;;;;;;;25;5;;;;;;;13.3;34.31152;938.1572;;;;
2023/04/05 09:30:21;;;;;;;4;3.5;;;;;;;13.42;33.98633;938.2092;;;;
2023/04/05 09:32:46;;;;;;;5.2;3.5;;;;;;;13.44;33.56348;938.1533;;;;
2023/04/05 09:35:17;;;;;;;4.8;3.3;;;;;;;13.25;33.79004;938.0541;;;;
2023/04/05 09:37:41;;;;;;;4.3;3.6;;;;;;;11.59;37.85059;938.0772;;;;
2023/04/05 09:40:13;;;;;;;4.2;3.4;;;;;;;11.38;36.8125;938.0821;;;;
2023/04/05 09:42:35;;;;;;;4;3.4;;;;;;;11.87;36.92383;938.0945;;;;
2023/04/05 09:45:01;;;;;;;5.4;3.8;;;;;;;12.09;36.5752;937.9822;;;;
2023/04/05 09:47:29;;;;;;;5.8;3.3;;;;;;;11.9;37.04102;937.975;;;;
2023/04/05 09:49:50;;;;;;;4.1;3.4;;;;;;;11.79;37.26074;938.0133;;;;
2023/04/05 09:52:17;;;;;;;6.3;3.8;;;;;;;11.92;37.3291;937.9878;;;;
2023/04/05 09:54:42;;;;;;;4.8;3.7;;;;;;;11.1;38.03516;938.041;;;;
2023/04/05 09:57:07;;;;;;;4.1;3.7;;;;;;;11.68;38.25879;938.0756;;;;
2023/04/05 09:59:32;;;;;;;4.5;3.9;;;;;;;11.21;38.56055;938.0779;;;;
2023/04/05 10:01:57;;;;;;;4.3;3.7;;;;;;;11.62;37.07422;938.033;;;;
2023/04/05 10:04:22;;;;;;;4.1;3.7;;;;;;;11.77;36.78906;938.0464;;;;
2023/04/05 10:06:48;;;;;;;5.3;3.8;;;;;;;11.37;38.81445;938.0295;;;;
2023/04/05 10:09:16;;;;;;;10.1;3.7;;;;;;;12.73;35.72266;937.9699;;;;
2023/04/05 10:11:38;;;;;;;4;3.6;;;;;;;12.99;35.16992;937.9686;;;;
2023/04/05 10:14:04;;;;;;;5.8;4;;;;;;;12.08;38.11133;937.9974;;;;
2023/04/05 10:16:29;;;;;;;4.1;3.7;;;;;;;13.09;36.22363;937.8313;;;;
2023/04/05 10:18:54;;;;;;;4.6;3.9;;;;;;;13.83;35.05469;937.9207;;;;
2023/04/05 10:21:19;;;;;;;4.1;3.7;;;;;;;13.65;34.77539;937.9073;;;;
2023/04/05 10:23:45;;;;;;;4.1;3.7;;;;;;;13.14;35.92969;937.8369;;;;
2023/04/05 10:26:10;;;;;;;4.4;3.5;;;;;;;14.06;33.70215;937.892;;;;
2023/04/05 10:28:36;;;;;;;4.5;3.7;;;;;;;14.65;32.36523;937.7928;;;;
2023/04/05 10:31:00;;;;;;;4;3.6;;;;;;;15.1;31.59082;937.8469;;;;
2023/04/05 10:33:26;;;;;;;4.7;3.6;;;;;;;14.65;32.90625;937.7985;;;;
2023/04/05 10:35:52;;;;;;;4.2;3.8;;;;;;;13.95;34.26953;937.8978;;;;
2023/04/05 10:38:18;;;;;;;6;4;;;;;;;13.96;34.12109;937.8994;;;;
2023/04/05 10:40:43;;;;;;;3.8;3.4;;;;;;;13.45;34.52832;937.8436;;;;
2023/04/05 10:43:08;;;;;;;5;3.5;;;;;;;13.84;34.45703;937.8494;;;;
2023/04/05 10:45:33;;;;;;;5.2;4;;;;;;;13.61;34.80664;937.8215;;;;
2023/04/05 10:48:00;;;;;;;5.3;4;;;;;;;14.04;34.51855;937.7728;;;;
2023/04/05 10:50:24;;;;;;;3.8;3.5;;;;;;;14.13;35.72363;937.8588;;;;
2023/04/05 10:52:49;;;;;;;4.7;3.4;;;;;;;15.1;32.00684;937.6398;;;;
2023/04/05 10:55:20;;;;;;;5.1;3.6;;;;;;;13.76;35.47363;937.7926;;;;
2023/04/05 10:57:48;;;;;;;4;3.6;;;;;;;13.72;34.72363;937.8031;;;;
2023/04/05 11:00:13;;;;;;;5;3.6;;;;;;;14.78;32.3291;937.7558;;;;
2023/04/05 11:02:43;;;;;;;5;3.9;;;;;;;14.41;33.14258;937.8088;;;;
2023/04/05 11:05:08;;;;;;;4.3;3.7;;;;;;;15.2;32.85547;937.6462;;;;
2023/04/05 11:07:33;;;;;;;4;3.6;;;;;;;15.01;32.24219;937.662;;;;
2023/04/05 11:10:00;;;;;;;5.4;3.5;;;;;;;14.73;32.70605;937.7001;;;;
2023/04/05 11:12:24;;;;;;;4.8;3.4;;;;;;;15.82;31.03027;937.7191;;;;
2023/04/05 11:14:49;;;;;;;6.6;4;;;;;;;15.41;33.42578;937.6958;;;;
2023/04/05 11:17:16;;;;;;;4.6;3.8;;;;;;;15.89;31.12695;937.699;;;;
2023/04/05 11:19:44;;;;;;;4.2;3.5;;;;;;;16.3;30.25391;937.5859;;;;
2023/04/05 11:22:09;;;;;;;4.3;3.9;;;;;;;15.43;31.91602;937.6261;;;;
2023/04/05 11:24:34;;;;;;;4.5;3.8;;;;;;;15.32;33.31543;937.6453;;;;
2023/04/05 11:27:00;;;;;;;4.4;3.8;;;;;;;14.94;32.04102;937.6145;;;;
2023/04/05 11:29:24;;;;;;;5.1;4;;;;;;;15.34;31.48145;937.5753;;;;
2023/04/05 11:31:49;;;;;;;4;3.5;;;;;;;15.66;31.5166;937.568;;;;
2023/04/05 11:34:19;;;;;;;18;5.2;;;;;;;14.95;32.07617;937.4894;;;;
2023/04/05 11:36:44;;;;;;;4.4;3.8;;;;;;;13.86;34.04395;937.5884;;;;
2023/04/05 11:39:09;;;;;;;4.1;3.7;;;;;;;13.5;34.16602;937.5131;;;;
2023/04/05 11:41:35;;;;;;;4.9;3.9;;;;;;;13.51;34.51074;937.4867;;;;
2023/04/05 11:44:03;;;;;;;17.3;4.9;;;;;;;12.88;35.9082;937.4852;;;;
2023/04/05 11:46:28;;;;;;;4.6;3.7;;;;;;;13.03;36.41309;937.5356;;;;
2023/04/05 11:48:53;;;;;;;4.9;3.8;;;;;;;12.24;38.27344;937.5136;;;;
2023/04/05 11:51:18;;;;;;;6.3;4.2;;;;;;;12.95;35.60352;937.4659;;;;
2023/04/05 11:53:45;;;;;;;5.4;4.2;;;;;;;13.97;34.375;937.4462;;;;
2023/04/05 11:56:12;;;;;;;4.8;3.9;;;;;;;15.46;32.4834;937.3762;;;;
2023/04/05 11:58:37;;;;;;;4;3.6;;;;;;;14.64;33.30957;937.4203;;;;
2023/04/05 12:01:02;;;;;;;6;4.1;;;;;;;14.18;33.62012;937.4213;;;;
2023/04/05 12:03:28;;;;;;;5.7;4.1;;;;;;;14.69;33.01367;937.4327;;;;
2023/04/05 12:05:53;;;;;;;4.5;3.9;;;;;;;15.48;32.20801;937.3856;;;;
2023/04/05 12:08:20;;;;;;;4.7;3.8;;;;;;;13.73;35;937.3853;;;;
2023/04/05 12:10:47;;;;;;;6;3.7;;;;;;;15.49;32.39355;937.3253;;;;
2023/04/05 12:13:11;;;;;;;4.2;3.4;;;;;;;16;30.52344;937.288;;;;
2023/04/05 12:15:40;;;;;;;4.5;3.7;;;;;;;16.79;29.93066;937.2578;;;;
2023/04/05 12:18:06;;;;;;;4.2;3.8;;;;;;;16.5;29.62012;937.2729;;;;
2023/04/05 12:20:29;;;;;;;4.4;3.7;;;;;;;15.19;32.69434;937.3214;;;;
2023/04/05 12:22:54;;;;;;;4.3;3.9;;;;;;;15.87;32.40918;937.3531;;;;
2023/04/05 12:25:20;;;;;;;3.6;3.3;;;;;;;15.47;32.68066;937.2566;;;;
2023/04/05 12:27:45;;;;;;;4.5;3.3;;;;;;;15.49;30.77734;937.2947;;;;
2023/04/05 12:30:14;;;;;;;3.6;3.3;;;;;;;14.97;31.60449;937.2703;;;;
2023/04/05 12:32:38;;;;;;;5.2;3.8;;;;;;;14.28;32.86816;937.248;;;;
2023/04/05 12:35:04;;;;;;;3.8;3.4;;;;;;;14.58;32.63672;937.2866;;;;
2023/04/05 12:37:31;;;;;;;4.9;3.7;;;;;;;13.62;32.77246;937.3354;;;;
2023/04/05 12:39:57;;;;;;;5.1;4.3;;;;;;;11.92;36.30957;937.2792;;;;
2023/04/05 12:42:22;;;;;;;4.4;3.8;;;;;;;11.28;37.9834;937.2861;;;;
2023/04/05 12:44:47;;;;;;;6.4;3.9;;;;;;;12.61;36.49316;937.233;;;;
2023/04/05 12:47:14;;;;;;;4.7;3.9;;;;;;;12.43;36.62695;937.2067;;;;
2023/04/05 12:49:38;;;;;;;6.5;3.9;;;;;;;12.17;37.0293;937.241;;;;
2023/04/05 12:52:03;;;;;;;4.2;3.7;;;;;;;11.98;37.38086;937.178;;;;
2023/04/05 12:54:29;;;;;;;5;3.7;;;;;;;12.25;36.63379;937.1231;;;;
2023/04/05 12:56:53;;;;;;;4;3.6;;;;;;;12.71;35.61719;937.2109;;;;
2023/04/05 12:59:19;;;;;;;4.7;4.2;;;;;;;12.8;35.61426;937.1789;;;;
2023/04/05 13:01:44;;;;;;;4.7;3.8;;;;;;;12.92;35.76172;937.2102;;;;
2023/04/05 13:04:11;;;;;;;4.1;3.7;;;;;;;13.19;35.88672;937.1671;;;;
2023/04/05 13:06:36;;;;;;;4.4;3.4;;;;;;;13.83;32.96094;937.1395;;;;
2023/04/05 13:09:02;;;;;;;5.8;4.3;;;;;;;14.26;32.93555;937.0952;;;;
2023/04/05 13:11:27;;;;;;;5.5;4;;;;;;;13.11;34.46777;937.103;;;;
2023/04/05 13:13:54;;;;;;;4;3.6;;;;;;;13.26;34.7207;937.1033;;;;
2023/04/05 13:16:19;;;;;;;4.7;3.7;;;;;;;13.49;34.65918;937.094;;;;
2023/04/05 13:18:45;;;;;;;4.4;3.7;;;;;;;14.38;31.9541;937.0863;;;;
2023/04/05 13:21:10;;;;;;;4.8;3.5;;;;;;;13.88;32.20508;937.0497;;;;
2023/04/05 13:23:37;;;;;;;4.3;3.9;;;;;;;11.74;37.63379;936.9989;;;;
2023/04/05 13:26:02;;;;;;;4.3;3.9;;;;;;;10.92;38.05469;937.038;;;;
2023/04/05 13:28:27;;;;;;;6.1;4.7;;;;;;;10.37;38.66797;937.0835;;;;
2023/04/05 13:30:53;;;;;;;5.7;4.1;;;;;;;9.8;40.74805;937.0508;;;;
2023/04/05 13:33:19;;;;;;;4.6;4.2;;;;;;;9.01;40.36621;937.106;;;;
2023/04/05 13:35:44;;;;;;;5;3.9;;;;;;;8.88;40.65039;937.1229;;;;
2023/04/05 13:38:11;;;;;;;4.5;4;;;;;;;9.59;39.98828;936.9227;;;;
2023/04/05 13:40:36;;;;;;;4.7;4.1;;;;;;;10.22;38.25586;936.9549;;;;
2023/04/05 13:43:02;;;;;;;5.2;4.1;;;;;;;10.01;40.14063;936.8968;;;;
2023/04/05 13:45:28;;;;;;;4.9;4.3;;;;;;;9.42;40.34766;936.9781;;;;
2023/04/05 13:47:54;;;;;;;4.6;4.2;;;;;;;9.22;41.41016;937.0048;;;;
2023/04/05 13:50:19;;;;;;;4.5;3.8;;;;;;;9.08;41.29492;936.9608;;;;
2023/04/05 13:52:48;;;;;;;4.8;4.2;;;;;;;8.67;41.5625;937.0037;;;;
2023/04/05 13:55:16;;;;;;;5.6;4;;;;;;;8.37;42.82813;936.894;;;;
2023/04/05 13:57:41;;;;;;;6.2;4.3;;;;;;;8.79;40.86914;937.0086;;;;
2023/04/05 14:00:11;;;;;;;4.4;3.9;;;;;;;8.93;39.41504;937.0943;;;;
2023/04/05 14:02:39;;;;;;;4.2;3.8;;;;;;;9.22;39.14551;937.0739;;;;
2023/04/05 14:05:04;;;;;;;4.2;3.8;;;;;;;9.4;39.21875;937.0689;;;;
2023/04/05 14:07:30;;;;;;;4.6;3.7;;;;;;;9.35;39.09961;936.9889;;;;
2023/04/05 14:09:56;;;;;;;5.9;4.1;;;;;;;9.45;39.92969;937.0683;;;;
2023/04/05 14:12:21;;;;;;;4.2;3.8;;;;;;;9.64;38.8877;936.9545;;;;
2023/04/05 14:14:46;;;;;;;4.7;3.7;;;;;;;9.42;40.17676;937.0464;;;;
2023/04/05 14:17:15;;;;;;;6.3;4.3;;;;;;;9.29;40.00586;936.9731;;;;
2023/04/05 14:19:40;;;;;;;4.5;4;;;;;;;9.24;40.53613;936.9725;;;;
2023/04/05 14:22:07;;;;;;;4.5;4.1;;;;;;;8.99;40.52344;936.9942;;;;